sensor_id;sensor_type;location;lat;lon;timestamp;temperature;humidity
17236;DHT22;8734;59.272;17.780;2024-03-25T00:01:32;0.70;99.90
17236;DHT22;8734;59.272;17.780;2024-03-25T00:03:59;0.80;99.90
17236;DHT22;8734;59.272;17.780;2024-03-25T00:06:25;0.80;99.90
17236;DHT22;8734;59.272;17.780;2024-03-25T00:08:52;0.80;99.90
17236;DHT22;8734;59.272;17.780;2024-03-25T00:11:19;0.70;99.90
17236;DHT22;8734;59.272;17.780;2024-03-25T00:13:47;0.70;99.90
17236;DHT22;8734;59.272;17.780;2024-03-25T00:16:13;0.70;99.90
17236;DHT22;8734;59.272;17.780;2024-03-25T00:18:41;0.70;99.90
17236;DHT22;8734;59.272;17.780;2024-03-25T00:21:07;0.70;99.90
17236;DHT22;8734;59.272;17.780;2024-03-25T00:23:34;0.70;99.90
17236;DHT22;8734;59.272;17.780;2024-03-25T00:26:00;0.70;99.90
17236;DHT22;8734;59.272;17.780;2024-03-25T00:28:28;0.70;99.90
17236;DHT22;8734;59.272;17.780;2024-03-25T00:30:55;0.70;99.90
17236;DHT22;8734;59.272;17.780;2024-03-25T00:33:23;0.70;99.90
17236;DHT22;8734;59.272;17.780;2024-03-25T00:35:50;0.70;99.90
17236;DHT22;8734;59.272;17.780;2024-03-25T00:38:17;0.70;99.90
17236;DHT22;8734;59.272;17.780;2024-03-25T00:40:43;0.70;99.90
17236;DHT22;8734;59.272;17.780;2024-03-25T00:43:10;0.60;99.90
17236;DHT22;8734;59.272;17.780;2024-03-25T00:45:37;0.60;99.90
17236;DHT22;8734;59.272;17.780;2024-03-25T00:48:06;0.70;99.90
17236;DHT22;8734;59.272;17.780;2024-03-25T00:50:32;0.60;99.90
17236;DHT22;8734;59.272;17.780;2024-03-25T00:53:00;0.60;99.90
17236;DHT22;8734;59.272;17.780;2024-03-25T00:55:26;0.70;99.90
17236;DHT22;8734;59.272;17.780;2024-03-25T00:57:53;0.60;99.90
17236;DHT22;8734;59.272;17.780;2024-03-25T01:00:19;0.60;99.90
17236;DHT22;8734;59.272;17.780;2024-03-25T01:02:47;0.60;99.90
17236;DHT22;8734;59.272;17.780;2024-03-25T01:05:14;0.60;99.90
17236;DHT22;8734;59.272;17.780;2024-03-25T01:07:42;0.60;99.90
17236;DHT22;8734;59.272;17.780;2024-03-25T01:10:09;0.60;99.90
17236;DHT22;8734;59.272;17.780;2024-03-25T01:12:36;0.60;99.90
17236;DHT22;8734;59.272;17.780;2024-03-25T01:15:03;0.60;99.90
17236;DHT22;8734;59.272;17.780;2024-03-25T01:17:31;0.60;99.90
17236;DHT22;8734;59.272;17.780;2024-03-25T01:19:57;0.60;99.90
17236;DHT22;8734;59.272;17.780;2024-03-25T01:22:26;0.60;99.90
17236;DHT22;8734;59.272;17.780;2024-03-25T01:24:52;0.60;99.90
17236;DHT22;8734;59.272;17.780;2024-03-25T01:27:19;0.50;99.90
17236;DHT22;8734;59.272;17.780;2024-03-25T01:29:45;0.50;99.90
17236;DHT22;8734;59.272;17.780;2024-03-25T01:32:12;0.50;99.90
17236;DHT22;8734;59.272;17.780;2024-03-25T01:34:39;0.50;99.90
17236;DHT22;8734;59.272;17.780;2024-03-25T01:37:06;0.50;99.90
17236;DHT22;8734;59.272;17.780;2024-03-25T01:39:34;0.50;99.90
17236;DHT22;8734;59.272;17.780;2024-03-25T01:42:03;0.50;99.90
17236;DHT22;8734;59.272;17.780;2024-03-25T01:44:29;0.50;99.90
17236;DHT22;8734;59.272;17.780;2024-03-25T01:46:56;0.50;99.90
17236;DHT22;8734;59.272;17.780;2024-03-25T01:49:23;0.50;99.90
17236;DHT22;8734;59.272;17.780;2024-03-25T01:51:50;0.50;99.90
17236;DHT22;8734;59.272;17.780;2024-03-25T01:54:17;0.50;99.90
17236;DHT22;8734;59.272;17.780;2024-03-25T01:56:47;0.50;99.90
17236;DHT22;8734;59.272;17.780;2024-03-25T01:59:16;0.50;99.90
17236;DHT22;8734;59.272;17.780;2024-03-25T02:01:43;0.50;99.90
17236;DHT22;8734;59.272;17.780;2024-03-25T02:04:10;0.50;99.90
17236;DHT22;8734;59.272;17.780;2024-03-25T02:06:40;0.40;99.90
17236;DHT22;8734;59.272;17.780;2024-03-25T02:09:08;0.40;99.90
17236;DHT22;8734;59.272;17.780;2024-03-25T02:11:36;0.40;99.90
17236;DHT22;8734;59.272;17.780;2024-03-25T02:14:04;0.40;99.90
17236;DHT22;8734;59.272;17.780;2024-03-25T02:16:32;0.40;99.90
17236;DHT22;8734;59.272;17.780;2024-03-25T02:18:58;0.40;99.90
17236;DHT22;8734;59.272;17.780;2024-03-25T02:21:26;0.40;99.90
17236;DHT22;8734;59.272;17.780;2024-03-25T02:23:53;0.40;99.90
17236;DHT22;8734;59.272;17.780;2024-03-25T02:26:24;0.40;99.90
17236;DHT22;8734;59.272;17.780;2024-03-25T02:28:51;0.40;99.90
17236;DHT22;8734;59.272;17.780;2024-03-25T02:31:18;0.40;99.90
17236;DHT22;8734;59.272;17.780;2024-03-25T02:33:44;0.40;99.90
17236;DHT22;8734;59.272;17.780;2024-03-25T02:36:11;0.40;99.90
17236;DHT22;8734;59.272;17.780;2024-03-25T02:38:38;0.40;99.90
17236;DHT22;8734;59.272;17.780;2024-03-25T02:41:05;0.40;99.90
17236;DHT22;8734;59.272;17.780;2024-03-25T02:43:33;0.40;99.90
17236;DHT22;8734;59.272;17.780;2024-03-25T02:46:00;0.40;99.90
17236;DHT22;8734;59.272;17.780;2024-03-25T02:48:27;0.40;99.90
17236;DHT22;8734;59.272;17.780;2024-03-25T02:50:54;0.40;99.90
17236;DHT22;8734;59.272;17.780;2024-03-25T02:53:20;0.40;99.90
17236;DHT22;8734;59.272;17.780;2024-03-25T02:55:47;0.30;99.90
17236;DHT22;8734;59.272;17.780;2024-03-25T02:58:13;0.40;99.90
17236;DHT22;8734;59.272;17.780;2024-03-25T03:00:42;0.30;99.90
17236;DHT22;8734;59.272;17.780;2024-03-25T03:03:08;0.30;99.90
17236;DHT22;8734;59.272;17.780;2024-03-25T03:05:35;0.30;99.90
17236;DHT22;8734;59.272;17.780;2024-03-25T03:08:02;0.30;99.90
17236;DHT22;8734;59.272;17.780;2024-03-25T03:10:29;0.30;99.90
17236;DHT22;8734;59.272;17.780;2024-03-25T03:12:55;0.30;99.90
17236;DHT22;8734;59.272;17.780;2024-03-25T03:15:22;0.30;99.90
17236;DHT22;8734;59.272;17.780;2024-03-25T03:17:50;0.30;99.90
17236;DHT22;8734;59.272;17.780;2024-03-25T03:20:17;0.30;99.90
17236;DHT22;8734;59.272;17.780;2024-03-25T03:22:43;0.30;99.90
17236;DHT22;8734;59.272;17.780;2024-03-25T03:25:10;0.30;99.90
17236;DHT22;8734;59.272;17.780;2024-03-25T03:27:36;0.30;99.90
17236;DHT22;8734;59.272;17.780;2024-03-25T03:30:04;0.30;99.90
17236;DHT22;8734;59.272;17.780;2024-03-25T03:32:31;0.30;99.90
17236;DHT22;8734;59.272;17.780;2024-03-25T03:35:00;0.30;99.90
17236;DHT22;8734;59.272;17.780;2024-03-25T03:37:26;0.30;99.90
17236;DHT22;8734;59.272;17.780;2024-03-25T03:39:53;0.30;99.90
17236;DHT22;8734;59.272;17.780;2024-03-25T03:42:19;0.30;99.90
17236;DHT22;8734;59.272;17.780;2024-03-25T03:44:46;0.30;99.90
17236;DHT22;8734;59.272;17.780;2024-03-25T03:47:13;0.30;99.90
17236;DHT22;8734;59.272;17.780;2024-03-25T03:49:40;0.30;99.90
17236;DHT22;8734;59.272;17.780;2024-03-25T03:52:07;0.30;99.90
17236;DHT22;8734;59.272;17.780;2024-03-25T03:54:35;0.30;99.90
17236;DHT22;8734;59.272;17.780;2024-03-25T03:57:01;0.30;99.90
17236;DHT22;8734;59.272;17.780;2024-03-25T03:59:28;0.30;99.90
17236;DHT22;8734;59.272;17.780;2024-03-25T04:01:54;0.30;99.90
17236;DHT22;8734;59.272;17.780;2024-03-25T04:04:21;0.30;99.90
17236;DHT22;8734;59.272;17.780;2024-03-25T04:06:49;0.30;99.90
17236;DHT22;8734;59.272;17.780;2024-03-25T04:09:17;0.30;99.90
17236;DHT22;8734;59.272;17.780;2024-03-25T04:11:44;0.30;99.90
17236;DHT22;8734;59.272;17.780;2024-03-25T04:14:11;0.30;99.90
17236;DHT22;8734;59.272;17.780;2024-03-25T04:16:37;0.30;99.90
17236;DHT22;8734;59.272;17.780;2024-03-25T04:19:04;0.30;99.90
17236;DHT22;8734;59.272;17.780;2024-03-25T04:21:30;0.30;99.90
17236;DHT22;8734;59.272;17.780;2024-03-25T04:23:58;0.30;99.90
17236;DHT22;8734;59.272;17.780;2024-03-25T04:26:25;0.20;99.90
17236;DHT22;8734;59.272;17.780;2024-03-25T04:28:52;0.20;99.90
17236;DHT22;8734;59.272;17.780;2024-03-25T04:31:18;0.20;99.90
17236;DHT22;8734;59.272;17.780;2024-03-25T04:33:46;0.30;99.90
17236;DHT22;8734;59.272;17.780;2024-03-25T04:36:12;0.20;99.90
17236;DHT22;8734;59.272;17.780;2024-03-25T04:38:39;0.20;99.90
17236;DHT22;8734;59.272;17.780;2024-03-25T04:41:06;0.20;99.90
17236;DHT22;8734;59.272;17.780;2024-03-25T04:43:33;0.20;99.90
17236;DHT22;8734;59.272;17.780;2024-03-25T04:46:00;0.30;99.90
17236;DHT22;8734;59.272;17.780;2024-03-25T04:48:27;0.20;99.90
17236;DHT22;8734;59.272;17.780;2024-03-25T04:50:53;0.20;99.90
17236;DHT22;8734;59.272;17.780;2024-03-25T04:53:19;0.20;99.90
17236;DHT22;8734;59.272;17.780;2024-03-25T04:55:45;0.30;99.90
17236;DHT22;8734;59.272;17.780;2024-03-25T04:58:11;0.30;99.90
17236;DHT22;8734;59.272;17.780;2024-03-25T05:00:39;0.30;99.90
17236;DHT22;8734;59.272;17.780;2024-03-25T05:03:05;0.30;99.90
17236;DHT22;8734;59.272;17.780;2024-03-25T05:05:31;0.30;99.90
17236;DHT22;8734;59.272;17.780;2024-03-25T05:07:58;0.30;99.90
17236;DHT22;8734;59.272;17.780;2024-03-25T05:10:24;0.30;99.90
17236;DHT22;8734;59.272;17.780;2024-03-25T05:12:50;0.30;99.90
17236;DHT22;8734;59.272;17.780;2024-03-25T05:15:16;0.30;99.90
17236;DHT22;8734;59.272;17.780;2024-03-25T05:17:44;0.30;99.90
17236;DHT22;8734;59.272;17.780;2024-03-25T05:20:11;0.30;99.90
17236;DHT22;8734;59.272;17.780;2024-03-25T05:22:37;0.40;99.90
17236;DHT22;8734;59.272;17.780;2024-03-25T05:25:04;0.40;99.90
17236;DHT22;8734;59.272;17.780;2024-03-25T05:27:30;0.40;99.90
17236;DHT22;8734;59.272;17.780;2024-03-25T05:29:57;0.50;99.90
17236;DHT22;8734;59.272;17.780;2024-03-25T05:32:23;0.50;99.90
17236;DHT22;8734;59.272;17.780;2024-03-25T05:34:50;0.40;99.90
17236;DHT22;8734;59.272;17.780;2024-03-25T05:37:17;0.50;99.90
17236;DHT22;8734;59.272;17.780;2024-03-25T05:39:43;0.50;99.90
17236;DHT22;8734;59.272;17.780;2024-03-25T05:42:09;0.60;99.90
17236;DHT22;8734;59.272;17.780;2024-03-25T05:44:36;0.60;99.90
17236;DHT22;8734;59.272;17.780;2024-03-25T05:47:02;0.60;99.90
17236;DHT22;8734;59.272;17.780;2024-03-25T05:49:28;0.60;99.90
17236;DHT22;8734;59.272;17.780;2024-03-25T05:51:56;0.60;99.90
17236;DHT22;8734;59.272;17.780;2024-03-25T05:54:22;0.70;99.90
17236;DHT22;8734;59.272;17.780;2024-03-25T05:56:48;0.70;99.90
17236;DHT22;8734;59.272;17.780;2024-03-25T05:59:14;0.70;99.90
17236;DHT22;8734;59.272;17.780;2024-03-25T06:01:41;0.80;99.90
17236;DHT22;8734;59.272;17.780;2024-03-25T06:04:07;0.90;99.90
17236;DHT22;8734;59.272;17.780;2024-03-25T06:06:33;0.80;99.90
17236;DHT22;8734;59.272;17.780;2024-03-25T06:09:01;0.90;99.90
17236;DHT22;8734;59.272;17.780;2024-03-25T06:11:27;1.00;99.90
17236;DHT22;8734;59.272;17.780;2024-03-25T06:13:53;1.00;99.90
17236;DHT22;8734;59.272;17.780;2024-03-25T06:16:19;1.00;99.90
17236;DHT22;8734;59.272;17.780;2024-03-25T06:18:45;1.00;99.90
17236;DHT22;8734;59.272;17.780;2024-03-25T06:21:12;1.00;99.90
17236;DHT22;8734;59.272;17.780;2024-03-25T06:23:38;1.00;99.90
17236;DHT22;8734;59.272;17.780;2024-03-25T06:26:05;1.00;99.90
17236;DHT22;8734;59.272;17.780;2024-03-25T06:28:32;1.00;99.90
17236;DHT22;8734;59.272;17.780;2024-03-25T06:30:58;1.00;99.90
17236;DHT22;8734;59.272;17.780;2024-03-25T06:33:43;1.10;99.90
17236;DHT22;8734;59.272;17.780;2024-03-25T06:36:27;1.20;99.90
17236;DHT22;8734;59.272;17.780;2024-03-25T06:38:54;1.20;99.90
17236;DHT22;8734;59.272;17.780;2024-03-25T06:41:21;1.30;99.90
17236;DHT22;8734;59.272;17.780;2024-03-25T06:43:47;1.40;99.90
17236;DHT22;8734;59.272;17.780;2024-03-25T06:46:14;1.40;99.90
17236;DHT22;8734;59.272;17.780;2024-03-25T06:48:40;1.40;99.90
17236;DHT22;8734;59.272;17.780;2024-03-25T06:51:06;1.30;99.90
17236;DHT22;8734;59.272;17.780;2024-03-25T06:53:32;1.30;99.90
17236;DHT22;8734;59.272;17.780;2024-03-25T06:55:59;1.30;99.90
17236;DHT22;8734;59.272;17.780;2024-03-25T06:58:28;1.40;99.90
17236;DHT22;8734;59.272;17.780;2024-03-25T07:00:56;1.40;99.90
17236;DHT22;8734;59.272;17.780;2024-03-25T07:03:23;1.50;99.90
17236;DHT22;8734;59.272;17.780;2024-03-25T07:05:51;1.60;99.90
17236;DHT22;8734;59.272;17.780;2024-03-25T07:08:17;1.70;99.90
17236;DHT22;8734;59.272;17.780;2024-03-25T07:10:44;1.80;99.90
17236;DHT22;8734;59.272;17.780;2024-03-25T07:13:11;1.80;99.90
17236;DHT22;8734;59.272;17.780;2024-03-25T07:15:39;1.80;99.90
17236;DHT22;8734;59.272;17.780;2024-03-25T07:18:06;1.80;99.90
17236;DHT22;8734;59.272;17.780;2024-03-25T07:20:32;1.90;99.90
17236;DHT22;8734;59.272;17.780;2024-03-25T07:22:58;1.90;99.90
17236;DHT22;8734;59.272;17.780;2024-03-25T07:25:25;1.90;99.90
17236;DHT22;8734;59.272;17.780;2024-03-25T07:27:52;1.90;99.90
17236;DHT22;8734;59.272;17.780;2024-03-25T07:30:18;1.90;99.90
17236;DHT22;8734;59.272;17.780;2024-03-25T07:32:46;1.90;99.90
17236;DHT22;8734;59.272;17.780;2024-03-25T07:35:12;2.00;99.90
17236;DHT22;8734;59.272;17.780;2024-03-25T07:37:39;2.00;99.90
17236;DHT22;8734;59.272;17.780;2024-03-25T07:40:06;2.00;99.90
17236;DHT22;8734;59.272;17.780;2024-03-25T07:42:33;2.00;99.90
17236;DHT22;8734;59.272;17.780;2024-03-25T07:44:59;2.00;99.90
17236;DHT22;8734;59.272;17.780;2024-03-25T07:47:25;2.10;99.90
17236;DHT22;8734;59.272;17.780;2024-03-25T07:49:53;2.30;99.90
17236;DHT22;8734;59.272;17.780;2024-03-25T07:52:19;2.20;99.90
17236;DHT22;8734;59.272;17.780;2024-03-25T07:54:45;2.20;99.90
17236;DHT22;8734;59.272;17.780;2024-03-25T07:57:12;2.30;99.90
17236;DHT22;8734;59.272;17.780;2024-03-25T07:59:38;2.30;99.90
17236;DHT22;8734;59.272;17.780;2024-03-25T08:02:06;2.40;99.90
17236;DHT22;8734;59.272;17.780;2024-03-25T08:04:33;2.30;99.90
17236;DHT22;8734;59.272;17.780;2024-03-25T08:07:00;2.30;99.90
17236;DHT22;8734;59.272;17.780;2024-03-25T08:09:27;2.40;99.90
17236;DHT22;8734;59.272;17.780;2024-03-25T08:11:53;2.50;99.90
17236;DHT22;8734;59.272;17.780;2024-03-25T08:14:19;2.60;99.90
17236;DHT22;8734;59.272;17.780;2024-03-25T08:16:45;2.70;99.90
17236;DHT22;8734;59.272;17.780;2024-03-25T08:19:11;2.80;99.90
17236;DHT22;8734;59.272;17.780;2024-03-25T08:21:38;2.90;99.90
17236;DHT22;8734;59.272;17.780;2024-03-25T08:24:06;2.90;99.90
17236;DHT22;8734;59.272;17.780;2024-03-25T08:26:32;2.90;99.90
17236;DHT22;8734;59.272;17.780;2024-03-25T08:28:59;3.00;99.90
17236;DHT22;8734;59.272;17.780;2024-03-25T08:31:25;3.10;99.90
17236;DHT22;8734;59.272;17.780;2024-03-25T08:33:51;3.30;99.90
17236;DHT22;8734;59.272;17.780;2024-03-25T08:36:17;3.40;99.90
17236;DHT22;8734;59.272;17.780;2024-03-25T08:38:44;3.40;99.90
17236;DHT22;8734;59.272;17.780;2024-03-25T08:41:11;3.40;99.90
17236;DHT22;8734;59.272;17.780;2024-03-25T08:43:38;3.60;99.90
17236;DHT22;8734;59.272;17.780;2024-03-25T08:46:04;3.70;99.90
17236;DHT22;8734;59.272;17.780;2024-03-25T08:48:30;3.70;99.90
17236;DHT22;8734;59.272;17.780;2024-03-25T08:50:56;3.60;99.90
17236;DHT22;8734;59.272;17.780;2024-03-25T08:53:22;3.60;99.90
17236;DHT22;8734;59.272;17.780;2024-03-25T08:55:48;3.70;99.90
17236;DHT22;8734;59.272;17.780;2024-03-25T08:58:16;3.90;99.90
17236;DHT22;8734;59.272;17.780;2024-03-25T09:00:42;3.90;99.90
17236;DHT22;8734;59.272;17.780;2024-03-25T09:03:09;3.60;99.90
17236;DHT22;8734;59.272;17.780;2024-03-25T09:05:35;3.70;99.90
17236;DHT22;8734;59.272;17.780;2024-03-25T09:08:01;3.70;99.90
17236;DHT22;8734;59.272;17.780;2024-03-25T09:10:29;3.60;99.90
17236;DHT22;8734;59.272;17.780;2024-03-25T09:13:13;3.70;99.90
17236;DHT22;8734;59.272;17.780;2024-03-25T09:15:41;3.70;99.90
17236;DHT22;8734;59.272;17.780;2024-03-25T09:18:07;3.50;99.90
17236;DHT22;8734;59.272;17.780;2024-03-25T09:20:33;3.70;99.90
17236;DHT22;8734;59.272;17.780;2024-03-25T09:22:59;3.70;99.90
17236;DHT22;8734;59.272;17.780;2024-03-25T09:25:25;3.80;99.90
17236;DHT22;8734;59.272;17.780;2024-03-25T09:27:52;4.00;99.90
17236;DHT22;8734;59.272;17.780;2024-03-25T09:30:18;4.20;99.90
17236;DHT22;8734;59.272;17.780;2024-03-25T09:32:46;4.10;99.90
17236;DHT22;8734;59.272;17.780;2024-03-25T09:35:12;3.90;99.90
17236;DHT22;8734;59.272;17.780;2024-03-25T09:37:39;4.00;99.90
17236;DHT22;8734;59.272;17.780;2024-03-25T09:40:06;4.10;99.90
17236;DHT22;8734;59.272;17.780;2024-03-25T09:42:34;4.20;99.90
17236;DHT22;8734;59.272;17.780;2024-03-25T09:45:02;4.30;99.90
17236;DHT22;8734;59.272;17.780;2024-03-25T09:47:29;4.30;99.90
17236;DHT22;8734;59.272;17.780;2024-03-25T09:49:59;4.40;99.90
17236;DHT22;8734;59.272;17.780;2024-03-25T09:52:28;4.50;99.90
17236;DHT22;8734;59.272;17.780;2024-03-25T09:54:54;4.70;99.90
17236;DHT22;8734;59.272;17.780;2024-03-25T09:57:21;4.40;99.90
17236;DHT22;8734;59.272;17.780;2024-03-25T09:59:48;4.40;99.90
17236;DHT22;8734;59.272;17.780;2024-03-25T10:02:14;4.40;99.90
17236;DHT22;8734;59.272;17.780;2024-03-25T10:04:46;4.60;99.90
17236;DHT22;8734;59.272;17.780;2024-03-25T10:07:21;4.70;99.90
17236;DHT22;8734;59.272;17.780;2024-03-25T10:09:48;4.60;99.90
17236;DHT22;8734;59.272;17.780;2024-03-25T10:12:14;4.30;99.90
17236;DHT22;8734;59.272;17.780;2024-03-25T10:14:40;4.30;99.90
17236;DHT22;8734;59.272;17.780;2024-03-25T10:17:06;4.20;99.90
17236;DHT22;8734;59.272;17.780;2024-03-25T10:19:33;4.00;99.90
17236;DHT22;8734;59.272;17.780;2024-03-25T10:22:05;4.20;99.90
17236;DHT22;8734;59.272;17.780;2024-03-25T10:24:42;4.30;99.90
17236;DHT22;8734;59.272;17.780;2024-03-25T10:27:18;4.30;99.90
17236;DHT22;8734;59.272;17.780;2024-03-25T10:29:44;4.40;99.90
17236;DHT22;8734;59.272;17.780;2024-03-25T10:32:11;4.40;99.90
17236;DHT22;8734;59.272;17.780;2024-03-25T10:34:39;4.60;99.90
17236;DHT22;8734;59.272;17.780;2024-03-25T10:37:09;5.00;99.90
17236;DHT22;8734;59.272;17.780;2024-03-25T10:39:43;5.10;99.90
17236;DHT22;8734;59.272;17.780;2024-03-25T10:42:16;5.00;99.90
17236;DHT22;8734;59.272;17.780;2024-03-25T10:44:44;5.10;99.90
17236;DHT22;8734;59.272;17.780;2024-03-25T10:47:12;5.10;99.90
17236;DHT22;8734;59.272;17.780;2024-03-25T10:49:47;5.10;99.90
17236;DHT22;8734;59.272;17.780;2024-03-25T10:52:14;5.10;99.90
17236;DHT22;8734;59.272;17.780;2024-03-25T10:54:43;5.30;99.90
17236;DHT22;8734;59.272;17.780;2024-03-25T10:57:09;5.50;99.90
17236;DHT22;8734;59.272;17.780;2024-03-25T10:59:37;5.40;99.90
17236;DHT22;8734;59.272;17.780;2024-03-25T11:02:04;5.40;99.90
17236;DHT22;8734;59.272;17.780;2024-03-25T11:04:31;5.20;99.90
17236;DHT22;8734;59.272;17.780;2024-03-25T11:07:07;5.40;99.90
17236;DHT22;8734;59.272;17.780;2024-03-25T11:09:33;5.60;99.90
17236;DHT22;8734;59.272;17.780;2024-03-25T11:12:01;5.40;99.90
17236;DHT22;8734;59.272;17.780;2024-03-25T11:14:27;5.40;99.90
17236;DHT22;8734;59.272;17.780;2024-03-25T11:16:54;5.30;99.90
17236;DHT22;8734;59.272;17.780;2024-03-25T11:19:25;5.30;99.90
17236;DHT22;8734;59.272;17.780;2024-03-25T11:21:51;5.10;99.90
17236;DHT22;8734;59.272;17.780;2024-03-25T11:24:27;5.10;99.90
17236;DHT22;8734;59.272;17.780;2024-03-25T11:26:54;5.50;99.90
17236;DHT22;8734;59.272;17.780;2024-03-25T11:29:22;5.70;99.90
17236;DHT22;8734;59.272;17.780;2024-03-25T11:31:49;5.80;99.90
17236;DHT22;8734;59.272;17.780;2024-03-25T11:34:16;6.00;99.90
17236;DHT22;8734;59.272;17.780;2024-03-25T11:36:42;6.10;99.90
17236;DHT22;8734;59.272;17.780;2024-03-25T11:39:08;5.60;99.90
17236;DHT22;8734;59.272;17.780;2024-03-25T11:41:35;5.50;99.90
17236;DHT22;8734;59.272;17.780;2024-03-25T11:44:05;5.60;99.90
17236;DHT22;8734;59.272;17.780;2024-03-25T11:46:33;5.80;99.90
17236;DHT22;8734;59.272;17.780;2024-03-25T11:49:02;5.70;99.90
17236;DHT22;8734;59.272;17.780;2024-03-25T11:51:28;5.80;99.90
17236;DHT22;8734;59.272;17.780;2024-03-25T11:53:54;5.90;99.90
17236;DHT22;8734;59.272;17.780;2024-03-25T11:56:22;5.80;99.90
17236;DHT22;8734;59.272;17.780;2024-03-25T11:58:48;5.80;99.90
17236;DHT22;8734;59.272;17.780;2024-03-25T12:01:15;5.40;99.90
17236;DHT22;8734;59.272;17.780;2024-03-25T12:03:43;5.30;99.90
17236;DHT22;8734;59.272;17.780;2024-03-25T12:06:09;5.20;99.90
17236;DHT22;8734;59.272;17.780;2024-03-25T12:08:35;5.10;99.90
17236;DHT22;8734;59.272;17.780;2024-03-25T12:11:02;5.20;99.90
17236;DHT22;8734;59.272;17.780;2024-03-25T12:13:49;5.20;99.90
17236;DHT22;8734;59.272;17.780;2024-03-25T12:16:15;5.10;99.90
17236;DHT22;8734;59.272;17.780;2024-03-25T12:18:44;5.00;99.90
17236;DHT22;8734;59.272;17.780;2024-03-25T12:21:11;5.00;99.90
17236;DHT22;8734;59.272;17.780;2024-03-25T12:23:37;5.10;99.90
17236;DHT22;8734;59.272;17.780;2024-03-25T12:26:04;5.30;99.90
17236;DHT22;8734;59.272;17.780;2024-03-25T12:28:31;5.40;99.90
17236;DHT22;8734;59.272;17.780;2024-03-25T12:30:57;5.40;99.90
17236;DHT22;8734;59.272;17.780;2024-03-25T12:33:24;5.50;99.90
17236;DHT22;8734;59.272;17.780;2024-03-25T12:35:52;5.40;99.90
17236;DHT22;8734;59.272;17.780;2024-03-25T12:38:25;5.50;99.90
17236;DHT22;8734;59.272;17.780;2024-03-25T12:40:52;5.50;99.90
17236;DHT22;8734;59.272;17.780;2024-03-25T12:43:19;5.70;99.90
17236;DHT22;8734;59.272;17.780;2024-03-25T12:45:45;5.90;99.90
17236;DHT22;8734;59.272;17.780;2024-03-25T12:48:11;6.00;99.90
17236;DHT22;8734;59.272;17.780;2024-03-25T12:50:38;6.10;99.90
17236;DHT22;8734;59.272;17.780;2024-03-25T12:53:05;6.10;99.90
17236;DHT22;8734;59.272;17.780;2024-03-25T12:55:32;6.10;99.90
17236;DHT22;8734;59.272;17.780;2024-03-25T12:57:58;6.10;99.90
17236;DHT22;8734;59.272;17.780;2024-03-25T13:00:24;5.90;99.90
17236;DHT22;8734;59.272;17.780;2024-03-25T13:02:50;5.80;99.90
17236;DHT22;8734;59.272;17.780;2024-03-25T13:05:17;5.70;99.90
17236;DHT22;8734;59.272;17.780;2024-03-25T13:07:43;5.60;99.90
17236;DHT22;8734;59.272;17.780;2024-03-25T13:10:10;5.60;99.90
17236;DHT22;8734;59.272;17.780;2024-03-25T13:12:37;5.80;99.90
17236;DHT22;8734;59.272;17.780;2024-03-25T13:15:04;5.90;99.90
17236;DHT22;8734;59.272;17.780;2024-03-25T13:17:30;5.70;99.90
17236;DHT22;8734;59.272;17.780;2024-03-25T13:19:56;5.70;99.90
17236;DHT22;8734;59.272;17.780;2024-03-25T13:22:22;5.70;99.90
17236;DHT22;8734;59.272;17.780;2024-03-25T13:24:48;5.50;99.90
17236;DHT22;8734;59.272;17.780;2024-03-25T13:27:16;5.40;99.90
17236;DHT22;8734;59.272;17.780;2024-03-25T13:29:43;5.50;99.90
17236;DHT22;8734;59.272;17.780;2024-03-25T13:32:09;5.50;99.90
17236;DHT22;8734;59.272;17.780;2024-03-25T13:34:35;5.50;99.90
17236;DHT22;8734;59.272;17.780;2024-03-25T13:37:01;5.40;99.90
17236;DHT22;8734;59.272;17.780;2024-03-25T13:39:27;5.30;99.90
17236;DHT22;8734;59.272;17.780;2024-03-25T13:41:53;5.20;99.90
17236;DHT22;8734;59.272;17.780;2024-03-25T13:44:21;5.10;99.90
17236;DHT22;8734;59.272;17.780;2024-03-25T13:46:47;5.10;99.90
17236;DHT22;8734;59.272;17.780;2024-03-25T13:49:14;5.00;99.90
17236;DHT22;8734;59.272;17.780;2024-03-25T13:51:40;5.00;99.90
17236;DHT22;8734;59.272;17.780;2024-03-25T13:54:06;5.10;99.90
17236;DHT22;8734;59.272;17.780;2024-03-25T13:56:32;5.20;99.90
17236;DHT22;8734;59.272;17.780;2024-03-25T13:58:59;5.30;99.90
17236;DHT22;8734;59.272;17.780;2024-03-25T14:01:26;5.20;99.90
17236;DHT22;8734;59.272;17.780;2024-03-25T14:03:53;5.10;99.90
17236;DHT22;8734;59.272;17.780;2024-03-25T14:06:19;5.10;99.90
17236;DHT22;8734;59.272;17.780;2024-03-25T14:08:45;5.10;99.90
17236;DHT22;8734;59.272;17.780;2024-03-25T14:11:11;5.00;99.90
17236;DHT22;8734;59.272;17.780;2024-03-25T14:13:38;5.00;99.90
17236;DHT22;8734;59.272;17.780;2024-03-25T14:16:04;4.90;99.90
17236;DHT22;8734;59.272;17.780;2024-03-25T14:18:32;4.90;99.90
17236;DHT22;8734;59.272;17.780;2024-03-25T14:20:58;4.80;99.90
17236;DHT22;8734;59.272;17.780;2024-03-25T14:23:25;4.80;99.90
17236;DHT22;8734;59.272;17.780;2024-03-25T14:25:51;4.70;99.90
17236;DHT22;8734;59.272;17.780;2024-03-25T14:28:18;4.80;99.90
17236;DHT22;8734;59.272;17.780;2024-03-25T14:30:44;4.80;99.90
17236;DHT22;8734;59.272;17.780;2024-03-25T14:33:10;4.80;99.90
17236;DHT22;8734;59.272;17.780;2024-03-25T14:35:38;4.90;99.90
17236;DHT22;8734;59.272;17.780;2024-03-25T14:38:04;4.90;99.90
17236;DHT22;8734;59.272;17.780;2024-03-25T14:40:30;4.90;99.90
17236;DHT22;8734;59.272;17.780;2024-03-25T14:42:56;4.90;99.90
17236;DHT22;8734;59.272;17.780;2024-03-25T14:45:22;4.80;99.90
17236;DHT22;8734;59.272;17.780;2024-03-25T14:47:49;4.80;99.90
17236;DHT22;8734;59.272;17.780;2024-03-25T14:50:15;4.70;99.90
17236;DHT22;8734;59.272;17.780;2024-03-25T14:52:43;4.60;99.90
17236;DHT22;8734;59.272;17.780;2024-03-25T14:55:09;4.60;99.90
17236;DHT22;8734;59.272;17.780;2024-03-25T14:57:35;4.70;99.90
17236;DHT22;8734;59.272;17.780;2024-03-25T15:00:02;4.70;99.90
17236;DHT22;8734;59.272;17.780;2024-03-25T15:02:29;4.70;99.90
17236;DHT22;8734;59.272;17.780;2024-03-25T15:04:55;4.70;99.90
17236;DHT22;8734;59.272;17.780;2024-03-25T15:07:21;4.60;99.90
17236;DHT22;8734;59.272;17.780;2024-03-25T15:09:49;4.60;99.90
17236;DHT22;8734;59.272;17.780;2024-03-25T15:12:15;4.50;99.90
17236;DHT22;8734;59.272;17.780;2024-03-25T15:14:41;4.60;99.90
17236;DHT22;8734;59.272;17.780;2024-03-25T15:17:08;4.50;99.90
17236;DHT22;8734;59.272;17.780;2024-03-25T15:19:35;4.60;99.90
17236;DHT22;8734;59.272;17.780;2024-03-25T15:22:01;4.60;99.90
17236;DHT22;8734;59.272;17.780;2024-03-25T15:24:28;4.60;99.90
17236;DHT22;8734;59.272;17.780;2024-03-25T15:26:55;4.50;99.90
17236;DHT22;8734;59.272;17.780;2024-03-25T15:29:22;4.40;99.90
17236;DHT22;8734;59.272;17.780;2024-03-25T15:31:49;4.40;99.90
17236;DHT22;8734;59.272;17.780;2024-03-25T15:34:15;4.30;99.90
17236;DHT22;8734;59.272;17.780;2024-03-25T15:36:41;4.30;99.90
17236;DHT22;8734;59.272;17.780;2024-03-25T15:39:07;4.20;99.90
17236;DHT22;8734;59.272;17.780;2024-03-25T15:41:34;4.10;99.90
17236;DHT22;8734;59.272;17.780;2024-03-25T15:44:01;4.10;99.90